Terminal Aerodrome Forecast
Issued by NWS

Home | Current Version | Previous Version | Text Only | Print | Product List | Glossary On
Versions: 1 2 3 4 5 6 7 8 9 10 11 12 13 14 15 16 17 18 19 20 21 22 23 24 25 26 27 28 29 30 31 32 33 34 35 36 37 38 39 40 41 42 43 44
000
FTUS43 KMKX 300522
TAFENW
TAF
KENW 300522Z 3006/3106 17007KT P6SM SCT040 BKN150
     FM300700 17008KT P6SM VCTS SCT035CB BKN080
      TEMPO 3007/3010 5SM -TSRA BKN035CB
     FM301000 19010KT 5SM BR VCTS SCT012 OVC035CB
     FM301200 20009KT 5SM BR SCT008 OVC025
     FM301500 22010KT 6SM -SHRA OVC018
     FM301700 22010KT P6SM VCSH BKN025
     FM310100 21003KT P6SM SCT030
     FM310400 21003KT 2SM BR SCT015=

USA.gov is the U.S. government's official web portal to all federal, state and local government web resources and services.